createdAt,value
2018-10-21T00:02:20.418Z,7.59
2018-10-21T00:04:49.429Z,7.54
2018-10-21T00:07:18.495Z,7.60
2018-10-21T00:12:23.318Z,7.59
2018-10-21T00:14:52.372Z,7.65
2018-10-21T00:17:21.410Z,7.66
2018-10-21T00:19:50.490Z,7.62
2018-10-21T00:22:19.577Z,7.69
2018-10-21T00:24:48.637Z,7.70
2018-10-21T00:27:18.754Z,7.69
2018-10-21T00:29:47.726Z,7.74
2018-10-21T00:34:52.469Z,7.94
2018-10-21T00:39:57.210Z,7.92
2018-10-21T00:42:26.356Z,8.00
2018-10-21T00:44:55.384Z,8.05
2018-10-21T00:47:24.428Z,8.06
2018-10-21T00:49:53.477Z,8.04
2018-10-21T00:52:22.585Z,8.05
2018-10-21T00:54:51.608Z,7.88
2018-10-21T00:57:20.674Z,7.77
2018-10-21T00:59:49.713Z,7.60
2018-10-21T01:04:54.474Z,7.31
2018-10-21T01:09:59.312Z,7.09
2018-10-21T01:12:28.396Z,7.10
2018-10-21T01:14:57.525Z,6.87
2018-10-21T01:22:38.983Z,6.58
2018-10-21T01:25:08.039Z,6.34
2018-10-21T01:27:37.107Z,6.31
2018-10-21T01:30:07.162Z,6.30
2018-10-21T01:32:38.162Z,6.13
2018-10-21T01:37:42.965Z,6.24
2018-10-21T01:42:47.693Z,6.09
2018-10-21T01:47:52.429Z,5.97
2018-10-21T01:50:22.421Z,5.98
2018-10-21T01:52:51.481Z,6.03
2018-10-21T01:55:20.520Z,6.14
2018-10-21T01:57:49.560Z,6.29
2018-10-21T02:02:55.299Z,6.53
2018-10-21T02:05:24.333Z,6.56
2018-10-21T02:07:53.377Z,6.61
2018-10-21T02:16:44.234Z,6.81
2018-10-21T02:21:49.016Z,6.90
2018-10-21T02:24:18.069Z,6.94
2018-10-21T02:26:49.142Z,6.96
2018-10-21T02:29:18.139Z,6.93
2018-10-21T02:31:47.189Z,6.89
2018-10-21T02:34:16.225Z,6.96
2018-10-21T02:36:45.288Z,6.94
2018-10-21T02:39:15.440Z,7.10
2018-10-21T02:41:53.608Z,7.14
2018-10-21T02:44:23.785Z,7.19
2018-10-21T02:46:52.837Z,7.28
2018-10-21T02:49:21.893Z,7.31
2018-10-21T02:51:50.947Z,7.24
2018-10-21T02:54:20.028Z,7.36
2018-10-21T02:56:49.073Z,7.34
2018-10-21T03:01:54.793Z,7.50
2018-10-21T03:04:24.813Z,7.49
2018-10-21T03:06:54.835Z,7.49
2018-10-21T03:09:23.885Z,7.49
2018-10-21T03:11:52.942Z,7.53
2018-10-21T03:14:21.989Z,7.50
2018-10-21T03:16:51.038Z,7.40
2018-10-21T03:19:20.080Z,7.34
2018-10-21T03:21:49.134Z,7.34
2018-10-21T03:24:18.198Z,7.50
2018-10-21T03:26:47.285Z,7.43
2018-10-21T03:29:16.346Z,7.42
2018-10-21T03:31:45.474Z,7.61
2018-10-21T03:34:14.512Z,7.67
2018-10-21T03:39:20.292Z,7.48
2018-10-21T03:41:49.346Z,7.37
2018-10-21T03:44:18.544Z,7.36
2018-10-21T03:46:47.622Z,7.58
2018-10-21T03:49:16.703Z,7.78
2018-10-21T03:51:45.915Z,7.57
2018-10-21T03:54:14.941Z,7.71
2018-10-21T03:56:43.989Z,7.81
2018-10-21T03:59:13.032Z,7.86
2018-10-21T04:04:17.823Z,8.04
2018-10-21T04:06:46.847Z,7.72
2018-10-21T04:09:15.881Z,7.85
2018-10-21T04:11:44.939Z,7.84
2018-10-21T04:14:13.977Z,7.64
2018-10-21T04:23:18.544Z,7.66
2018-10-21T04:25:47.592Z,7.45
2018-10-21T04:30:52.356Z,7.54
2018-10-21T04:33:21.409Z,7.45
2018-10-21T04:35:50.470Z,7.53
2018-10-21T04:40:56.245Z,7.70
2018-10-21T04:43:25.290Z,7.72
2018-10-21T04:45:55.349Z,7.63
2018-10-21T04:48:24.349Z,7.75
2018-10-21T04:50:53.396Z,7.73
2018-10-21T04:53:22.438Z,7.67
2018-10-21T04:55:51.491Z,7.62
2018-10-21T04:58:20.530Z,7.78
2018-10-21T05:06:01.026Z,7.81
2018-10-21T05:11:05.784Z,7.65
2018-10-21T05:13:35.740Z,7.53
2018-10-21T05:16:04.830Z,7.54
2018-10-21T05:18:34.792Z,7.40
2018-10-21T05:21:03.844Z,7.66
2018-10-21T05:23:32.901Z,7.97
2018-10-21T05:26:01.941Z,7.85
2018-10-21T05:28:30.989Z,7.75
2018-10-21T05:31:00.038Z,7.71
2018-10-21T05:33:29.985Z,7.86
2018-10-21T05:35:59.043Z,7.77
2018-10-21T05:38:28.083Z,7.71
2018-10-21T05:40:57.121Z,7.86
2018-10-21T05:46:02.916Z,7.86
2018-10-21T05:48:31.904Z,7.89
2018-10-21T05:51:01.977Z,7.72
2018-10-21T05:53:31.022Z,7.74
2018-10-21T05:56:01.289Z,7.78
2018-10-21T06:01:06.017Z,8.20
2018-10-21T06:03:35.058Z,8.37
2018-10-21T06:06:04.093Z,8.43
2018-10-21T06:08:34.196Z,8.27
2018-10-21T06:11:11.051Z,8.41
2018-10-21T06:13:40.099Z,8.52
2018-10-21T06:16:09.140Z,8.50
2018-10-21T06:18:38.184Z,8.54
2018-10-21T06:23:42.986Z,8.63
2018-10-21T06:28:49.157Z,8.72
2018-10-21T06:31:18.221Z,8.89
2018-10-21T06:33:47.346Z,8.79
2018-10-21T06:36:16.316Z,8.97
2018-10-21T06:38:45.370Z,8.83
2018-10-21T06:41:16.409Z,8.72
2018-10-21T06:43:45.449Z,8.79
2018-10-21T06:48:50.198Z,8.89
2018-10-21T06:53:54.936Z,8.86
2018-10-21T06:56:24.008Z,9.17
2018-10-21T06:58:53.065Z,8.95
2018-10-21T07:01:22.103Z,9.13
2018-10-21T07:03:51.150Z,9.60
2018-10-21T07:06:20.280Z,10.09
2018-10-21T07:11:25.135Z,9.87
2018-10-21T07:13:54.378Z,10.30
2018-10-21T07:16:24.498Z,10.54
2018-10-21T07:18:55.422Z,10.76
2018-10-21T07:21:24.473Z,10.86
2018-10-21T07:23:53.533Z,10.91
2018-10-21T07:26:22.609Z,10.84
2018-10-21T07:34:12.171Z,11.29
2018-10-21T07:36:41.129Z,10.99
2018-10-21T07:39:10.170Z,10.91
2018-10-21T07:41:39.224Z,10.41
2018-10-21T07:44:08.269Z,10.47
2018-10-21T07:46:37.337Z,11.12
2018-10-21T07:49:06.409Z,11.40
2018-10-21T07:54:11.224Z,12.02
2018-10-21T07:56:43.672Z,12.18
2018-10-21T07:59:16.445Z,12.03
2018-10-21T08:01:45.492Z,12.30
2018-10-21T08:04:15.671Z,11.36
2018-10-21T08:09:52.241Z,11.78
2018-10-21T08:12:21.307Z,12.06
2018-10-21T08:14:50.592Z,12.38
2018-10-21T08:17:19.576Z,12.12
2018-10-21T08:19:49.551Z,12.15
2018-10-21T08:22:18.593Z,12.25
2018-10-21T08:24:51.024Z,12.40
2018-10-21T08:27:20.134Z,12.95
2018-10-21T08:29:49.154Z,13.51
2018-10-21T08:32:19.238Z,13.36
2018-10-21T08:34:48.299Z,12.97
2018-10-21T08:37:17.353Z,12.83
2018-10-21T08:39:51.756Z,13.37
2018-10-21T08:42:20.812Z,13.51
2018-10-21T08:44:49.884Z,15.17
2018-10-21T08:47:22.931Z,16.17
2018-10-21T08:49:52.251Z,17.05
2018-10-21T08:52:21.241Z,16.75
2018-10-21T08:54:50.309Z,19.00
2018-10-21T08:57:20.353Z,18.24
2018-10-21T08:59:50.389Z,19.98
2018-10-21T09:04:55.190Z,21.72
2018-10-21T09:07:24.419Z,22.80
2018-10-21T09:09:53.535Z,22.35
2018-10-21T09:12:23.469Z,19.22
2018-10-21T09:14:52.562Z,19.00
2018-10-21T09:17:21.573Z,19.61
2018-10-21T09:19:52.641Z,19.29
2018-10-21T09:22:22.700Z,17.43
2018-10-21T09:24:52.754Z,17.10
2018-10-21T09:27:23.790Z,19.10
2018-10-21T09:29:52.861Z,21.25
2018-10-21T09:32:23.047Z,20.98
2018-10-21T09:34:52.081Z,20.10
2018-10-21T09:37:22.179Z,18.73
2018-10-21T09:39:51.243Z,20.11
2018-10-21T09:42:20.393Z,20.41
2018-10-21T09:44:49.357Z,21.40
2018-10-21T09:47:18.417Z,22.34
2018-10-21T09:49:47.581Z,20.63
2018-10-21T09:52:16.656Z,22.33
2018-10-21T09:54:46.913Z,24.42
2018-10-21T09:57:15.846Z,24.06
2018-10-21T09:59:45.055Z,27.23
2018-10-21T10:05:11.661Z,27.42
2018-10-21T10:07:40.665Z,23.86
2018-10-21T10:10:09.774Z,24.06
2018-10-21T10:12:39.713Z,22.12
2018-10-21T10:15:08.795Z,21.22
2018-10-21T10:17:37.943Z,22.32
2018-10-21T10:20:07.098Z,20.21
2018-10-21T10:25:11.967Z,24.05
2018-10-21T10:27:40.984Z,23.04
2018-10-21T10:30:10.036Z,26.13
2018-10-21T10:32:39.169Z,28.82
2018-10-21T10:35:08.255Z,30.60
2018-10-21T10:37:37.302Z,31.62
2018-10-21T10:40:07.350Z,29.15
2018-10-21T10:45:12.218Z,21.71
2018-10-21T10:50:17.043Z,21.98
2018-10-21T10:52:46.141Z,17.16
2018-10-21T10:57:51.889Z,19.45
2018-10-21T11:00:20.958Z,23.48
2018-10-21T11:02:50.091Z,25.20
2018-10-21T11:05:19.163Z,28.18
2018-10-21T11:07:48.208Z,33.04
2018-10-21T11:10:17.443Z,28.65
2018-10-21T11:12:46.509Z,29.77
2018-10-21T11:15:16.473Z,29.32
2018-10-21T11:17:45.529Z,25.65
2018-10-21T11:20:14.609Z,25.48
2018-10-21T11:22:43.786Z,28.79
2018-10-21T11:27:48.585Z,28.09
2018-10-21T11:30:17.639Z,30.48
2018-10-21T11:32:46.820Z,26.88
2018-10-21T11:35:16.876Z,21.93
2018-10-21T11:40:21.676Z,23.39
2018-10-21T11:42:50.746Z,21.63
2018-10-21T11:45:20.712Z,21.21
2018-10-21T11:47:49.803Z,20.25
2018-10-21T11:50:19.841Z,19.48
2018-10-21T11:52:50.135Z,23.69
2018-10-21T11:55:19.323Z,24.92
2018-10-21T11:57:48.227Z,27.55
2018-10-21T12:00:17.328Z,23.16
2018-10-21T12:02:47.410Z,25.72
2018-10-21T12:05:18.419Z,28.57
2018-10-21T12:07:49.467Z,25.85
2018-10-21T12:10:19.515Z,24.92
2018-10-21T12:12:48.560Z,23.49
2018-10-21T12:15:17.681Z,22.94
2018-10-21T12:20:22.514Z,26.11
2018-10-21T12:22:51.647Z,22.97
2018-10-21T12:25:21.006Z,21.65
2018-10-21T12:27:49.983Z,21.11
2018-10-21T12:30:19.077Z,20.22
2018-10-21T12:32:50.121Z,18.95
2018-10-21T12:37:55.219Z,20.52
2018-10-21T12:40:25.489Z,20.65
2018-10-21T12:42:55.504Z,19.30
2018-10-21T12:45:24.588Z,18.12
2018-10-21T12:47:53.592Z,18.20
2018-10-21T12:50:22.637Z,18.88
2018-10-21T12:52:52.710Z,18.59
2018-10-21T12:57:57.662Z,20.38
2018-10-21T13:00:26.755Z,19.47
2018-10-21T13:02:55.759Z,20.12
2018-10-21T13:10:38.215Z,24.84
2018-10-21T13:13:16.903Z,23.64
2018-10-21T13:15:45.945Z,23.97
2018-10-21T13:18:15.159Z,24.48
2018-10-21T13:23:20.049Z,21.20
2018-10-21T13:25:49.096Z,19.24
2018-10-21T13:28:18.262Z,20.02
2018-10-21T13:30:47.287Z,22.50
2018-10-21T13:33:16.378Z,25.08
2018-10-21T13:35:45.533Z,24.82
2018-10-21T13:38:15.485Z,23.61
2018-10-21T13:43:20.324Z,22.33
2018-10-21T13:45:49.435Z,21.43
2018-10-21T13:48:18.456Z,20.64
2018-10-21T13:50:47.521Z,20.51
2018-10-21T13:53:21.388Z,20.16
2018-10-21T13:55:57.045Z,18.61
2018-10-21T13:58:27.272Z,18.54
2018-10-21T14:03:32.387Z,17.45
2018-10-21T14:06:01.414Z,18.36
2018-10-21T14:08:30.494Z,18.08
2018-10-21T14:13:35.303Z,18.48
2018-10-21T14:16:05.393Z,18.34
2018-10-21T14:18:34.478Z,17.94
2018-10-21T14:23:39.262Z,15.69
2018-10-21T14:26:08.319Z,15.24
2018-10-21T14:36:24.609Z,18.88
2018-10-21T14:38:53.670Z,18.94
2018-10-21T14:43:58.459Z,17.70
2018-10-21T14:46:27.525Z,16.14
2018-10-21T14:49:01.834Z,15.21
2018-10-21T14:51:30.869Z,14.48
2018-10-21T14:54:03.560Z,14.14
2018-10-21T14:56:34.553Z,14.35
2018-10-21T14:59:03.601Z,14.53
2018-10-21T15:01:32.785Z,13.85
2018-10-21T15:04:05.465Z,13.79
2018-10-21T15:06:36.479Z,13.78
2018-10-21T15:09:05.577Z,14.15
2018-10-21T15:14:10.406Z,14.13
2018-10-21T15:16:41.386Z,13.60
2018-10-21T15:21:46.182Z,13.76
2018-10-21T15:24:16.328Z,13.29
2018-10-21T15:34:40.713Z,12.83
2018-10-21T15:37:10.684Z,12.60
2018-10-21T15:39:39.776Z,12.57
2018-10-21T15:42:08.789Z,12.95
2018-10-21T15:44:37.842Z,12.41
2018-10-21T15:47:06.977Z,12.29
2018-10-21T15:49:36.024Z,12.20
2018-10-21T15:52:06.012Z,11.92
2018-10-21T15:54:35.066Z,11.69
2018-10-21T15:57:06.148Z,11.57
2018-10-21T15:59:35.189Z,11.47
2018-10-21T16:02:04.312Z,11.34
2018-10-21T16:04:33.313Z,11.23
2018-10-21T16:07:02.365Z,11.15
2018-10-21T16:09:32.370Z,11.11
2018-10-21T16:12:01.416Z,10.95
2018-10-21T16:14:30.559Z,10.79
2018-10-21T16:16:59.536Z,10.82
2018-10-21T16:19:28.582Z,10.52
2018-10-21T16:21:57.697Z,10.33
2018-10-21T16:24:26.715Z,10.18
2018-10-21T16:26:55.760Z,10.09
2018-10-21T16:29:24.788Z,9.84
2018-10-21T16:31:53.971Z,9.64
2018-10-21T16:34:22.905Z,9.55
2018-10-21T16:39:27.796Z,9.30
2018-10-21T16:41:56.821Z,9.10
2018-10-21T16:44:26.854Z,9.05
2018-10-21T16:46:55.893Z,8.87
2018-10-21T16:49:26.882Z,8.79
2018-10-21T16:51:55.936Z,8.71
2018-10-21T16:54:25.052Z,8.61
2018-10-21T16:56:54.068Z,8.61
2018-10-21T16:59:23.214Z,8.43
2018-10-21T17:01:52.208Z,8.37
2018-10-21T17:04:22.229Z,8.24
2018-10-21T17:09:27.078Z,8.10
2018-10-21T17:14:31.746Z,8.00
2018-10-21T17:17:00.813Z,7.87
2018-10-21T17:19:29.910Z,7.88
2018-10-21T17:21:59.989Z,7.85
2018-10-21T17:24:29.053Z,7.72
2018-10-21T17:26:58.096Z,7.70
2018-10-21T17:29:27.142Z,7.53
2018-10-21T17:31:58.154Z,7.37
2018-10-21T17:34:27.198Z,7.30
2018-10-21T17:47:19.222Z,6.57
2018-10-21T17:49:49.258Z,6.30
2018-10-21T17:52:18.399Z,6.14
2018-10-21T17:54:47.332Z,5.96
2018-10-21T17:57:17.392Z,5.80
2018-10-21T18:02:22.169Z,5.83
2018-10-21T18:04:51.197Z,5.89
2018-10-21T18:07:21.249Z,5.69
2018-10-21T18:12:26.039Z,5.74
2018-10-21T18:14:55.076Z,5.57
2018-10-21T18:17:24.131Z,5.40
2018-10-21T18:19:53.227Z,5.41
2018-10-21T18:22:22.231Z,5.36
2018-10-21T18:24:51.251Z,5.28
2018-10-21T18:27:20.300Z,5.34
2018-10-21T18:32:25.084Z,5.12
2018-10-21T18:34:54.288Z,4.98
2018-10-21T18:37:23.344Z,4.90
2018-10-21T18:42:28.145Z,4.95
2018-10-21T18:44:57.180Z,4.73
2018-10-21T18:47:26.262Z,4.91
2018-10-21T18:52:31.062Z,4.88
2018-10-21T18:55:00.108Z,4.66
2018-10-21T18:57:29.135Z,4.54
2018-10-21T18:59:58.247Z,4.49
2018-10-21T19:02:28.294Z,4.41
2018-10-21T19:04:57.320Z,4.47
2018-10-21T19:10:02.480Z,4.67
2018-10-21T19:12:31.962Z,4.63
2018-10-21T19:15:01.012Z,4.51
2018-10-21T19:17:33.924Z,4.38
2018-10-21T19:20:02.956Z,4.32
2018-10-21T19:22:31.997Z,4.26
2018-10-21T19:25:01.080Z,4.30
2018-10-21T19:27:32.091Z,4.29
2018-10-21T19:30:01.137Z,4.22
2018-10-21T19:32:30.196Z,4.22
2018-10-21T19:34:59.209Z,4.31
2018-10-21T19:40:03.995Z,4.31
2018-10-21T19:42:33.002Z,4.30
2018-10-21T19:45:02.133Z,4.38
2018-10-21T19:47:31.203Z,4.25
2018-10-21T19:50:00.266Z,4.14
2018-10-21T19:52:29.302Z,4.35
2018-10-21T19:54:58.433Z,4.90
2018-10-21T19:57:27.556Z,5.83
2018-10-21T20:02:39.449Z,6.13
2018-10-21T20:05:08.523Z,6.14
2018-10-21T20:07:37.887Z,6.28
2018-10-21T20:10:08.035Z,6.16
2018-10-21T20:12:37.094Z,5.98
2018-10-21T20:15:06.302Z,5.70
2018-10-21T20:20:12.003Z,5.32
2018-10-21T20:25:17.317Z,4.99
2018-10-21T20:27:46.302Z,5.02
2018-10-21T20:30:15.367Z,4.88
2018-10-21T20:35:20.157Z,4.98
2018-10-21T20:37:49.245Z,5.22
2018-10-21T20:40:18.381Z,5.14
2018-10-21T20:42:47.366Z,5.03
2018-10-21T20:45:16.409Z,4.97
2018-10-21T20:50:21.195Z,4.82
2018-10-21T20:52:51.192Z,5.01
2018-10-21T20:55:20.318Z,4.85
2018-10-21T20:57:49.404Z,4.74
2018-10-21T21:00:18.480Z,4.71
2018-10-21T21:02:48.400Z,4.60
2018-10-21T21:07:53.198Z,4.60
2018-10-21T21:10:22.240Z,4.32
2018-10-21T21:12:51.277Z,4.17
2018-10-21T21:15:20.293Z,4.12
2018-10-21T21:17:49.390Z,4.07
2018-10-21T21:20:19.350Z,4.00
2018-10-21T21:22:49.370Z,3.76
2018-10-21T21:25:19.735Z,3.59
2018-10-21T21:27:48.794Z,3.39
2018-10-21T21:30:17.902Z,3.22
2018-10-21T21:32:46.858Z,3.15
2018-10-21T21:35:15.894Z,3.05
2018-10-21T21:37:45.094Z,2.98
2018-10-21T21:40:14.137Z,2.84
2018-10-21T21:42:44.168Z,2.82
2018-10-21T21:45:13.210Z,2.85
2018-10-21T21:47:45.732Z,2.95
2018-10-21T21:52:50.638Z,3.06
2018-10-21T21:55:19.673Z,3.26
2018-10-21T21:57:48.716Z,3.22
2018-10-21T22:02:53.508Z,3.14
2018-10-21T22:05:22.564Z,3.00
2018-10-21T22:07:51.641Z,2.84
2018-10-21T22:10:20.778Z,2.99
2018-10-21T22:15:25.512Z,3.00
2018-10-21T22:20:30.267Z,3.00
2018-10-21T22:25:34.997Z,2.71
2018-10-21T22:28:04.119Z,2.63
2018-10-21T22:30:33.139Z,2.64
2018-10-21T22:33:02.180Z,2.58
2018-10-21T22:35:32.167Z,2.53
2018-10-21T22:38:01.296Z,2.51
2018-10-21T22:40:30.272Z,2.46
2018-10-21T22:42:59.322Z,2.53
2018-10-21T22:45:28.377Z,2.49
2018-10-21T22:50:33.158Z,2.38
2018-10-21T22:53:03.143Z,2.35
2018-10-21T22:55:32.191Z,2.19
2018-10-21T22:58:01.274Z,2.12
2018-10-21T23:00:30.277Z,2.03
2018-10-21T23:02:59.514Z,2.09
2018-10-21T23:05:28.660Z,2.05
2018-10-21T23:10:33.472Z,2.18
2018-10-21T23:13:03.493Z,2.17
2018-10-21T23:15:32.558Z,2.13
2018-10-21T23:18:01.672Z,2.03
2018-10-21T23:20:30.643Z,1.95
2018-10-21T23:22:59.697Z,1.88
2018-10-21T23:25:29.263Z,1.86
2018-10-21T23:27:58.359Z,1.81
2018-10-21T23:30:27.353Z,1.86
2018-10-21T23:32:56.395Z,1.84
2018-10-21T23:35:25.447Z,1.72
2018-10-21T23:37:54.492Z,1.65
2018-10-21T23:40:23.534Z,1.68
2018-10-21T23:42:54.569Z,1.72
2018-10-21T23:45:23.617Z,1.64
2018-10-21T23:47:52.667Z,1.63
2018-10-21T23:50:22.667Z,1.72
2018-10-21T23:52:51.752Z,1.60
2018-10-21T23:55:20.800Z,1.52
2018-10-21T23:57:49.872Z,1.49
